sensor_id;sensor_type;location;lat;lon;timestamp;temperature;humidity
12700;DHT22;6414;49.570;6.060;2023-02-26T00:01:24;-1.10;1.00
12700;DHT22;6414;49.570;6.060;2023-02-26T00:04:07;-1.20;1.00
12700;DHT22;6414;49.570;6.060;2023-02-26T00:06:53;-1.10;1.00
12700;DHT22;6414;49.570;6.060;2023-02-26T00:09:38;-1.00;1.00
12700;DHT22;6414;49.570;6.060;2023-02-26T00:12:24;-1.00;1.00
12700;DHT22;6414;49.570;6.060;2023-02-26T00:15:10;-0.90;1.00
12700;DHT22;6414;49.570;6.060;2023-02-26T00:17:58;-0.90;1.00
12700;DHT22;6414;49.570;6.060;2023-02-26T00:20:42;-0.90;1.00
12700;DHT22;6414;49.570;6.060;2023-02-26T00:23:27;-0.80;99.90
12700;DHT22;6414;49.570;6.060;2023-02-26T00:26:13;-0.80;99.90
12700;DHT22;6414;49.570;6.060;2023-02-26T00:28:58;-0.70;99.90
12700;DHT22;6414;49.570;6.060;2023-02-26T00:31:44;-0.80;99.90
12700;DHT22;6414;49.570;6.060;2023-02-26T00:34:29;-0.80;99.90
12700;DHT22;6414;49.570;6.060;2023-02-26T00:37:27;-0.80;99.90
12700;DHT22;6414;49.570;6.060;2023-02-26T00:40:16;-0.80;99.90
12700;DHT22;6414;49.570;6.060;2023-02-26T00:42:59;-0.80;1.00
12700;DHT22;6414;49.570;6.060;2023-02-26T00:49:06;-0.70;1.00
12700;DHT22;6414;49.570;6.060;2023-02-26T00:52:00;-0.70;1.00
12700;DHT22;6414;49.570;6.060;2023-02-26T00:54:44;-0.70;99.90
12700;DHT22;6414;49.570;6.060;2023-02-26T00:57:30;-0.80;99.90
12700;DHT22;6414;49.570;6.060;2023-02-26T01:00:16;-0.80;99.90
12700;DHT22;6414;49.570;6.060;2023-02-26T01:03:01;-0.90;99.90
12700;DHT22;6414;49.570;6.060;2023-02-26T01:05:47;-1.10;1.00
12700;DHT22;6414;49.570;6.060;2023-02-26T01:08:36;-1.10;1.00
12700;DHT22;6414;49.570;6.060;2023-02-26T01:11:19;-1.10;1.00
12700;DHT22;6414;49.570;6.060;2023-02-26T01:14:05;-1.10;1.00
12700;DHT22;6414;49.570;6.060;2023-02-26T01:16:58;-1.10;1.00
12700;DHT22;6414;49.570;6.060;2023-02-26T01:19:53;-1.10;1.00
12700;DHT22;6414;49.570;6.060;2023-02-26T01:22:51;-1.10;1.00
12700;DHT22;6414;49.570;6.060;2023-02-26T01:25:52;-1.00;1.00
12700;DHT22;6414;49.570;6.060;2023-02-26T01:28:35;-1.10;1.00
12700;DHT22;6414;49.570;6.060;2023-02-26T01:34:33;-1.60;1.00
12700;DHT22;6414;49.570;6.060;2023-02-26T01:43:17;-1.90;85.60
12700;DHT22;6414;49.570;6.060;2023-02-26T01:48:55;-1.90;99.90
12700;DHT22;6414;49.570;6.060;2023-02-26T01:51:49;-1.90;99.90
12700;DHT22;6414;49.570;6.060;2023-02-26T01:54:34;-1.80;99.90
12700;DHT22;6414;49.570;6.060;2023-02-26T01:57:18;-1.90;99.90
12700;DHT22;6414;49.570;6.060;2023-02-26T02:00:03;-1.90;99.90
12700;DHT22;6414;49.570;6.060;2023-02-26T02:02:48;-1.90;99.90
12700;DHT22;6414;49.570;6.060;2023-02-26T02:05:44;-1.90;99.90
12700;DHT22;6414;49.570;6.060;2023-02-26T02:08:28;-2.00;99.90
12700;DHT22;6414;49.570;6.060;2023-02-26T02:11:13;-2.10;99.90
12700;DHT22;6414;49.570;6.060;2023-02-26T02:14:08;-2.30;99.90
12700;DHT22;6414;49.570;6.060;2023-02-26T02:17:02;-2.40;99.90
12700;DHT22;6414;49.570;6.060;2023-02-26T02:19:53;-2.50;99.90
12700;DHT22;6414;49.570;6.060;2023-02-26T02:25:54;-2.10;99.90
12700;DHT22;6414;49.570;6.060;2023-02-26T02:31:33;-2.20;99.90
12700;DHT22;6414;49.570;6.060;2023-02-26T02:34:34;-2.30;99.90
12700;DHT22;6414;49.570;6.060;2023-02-26T02:37:26;-2.00;99.90
12700;DHT22;6414;49.570;6.060;2023-02-26T02:40:13;-2.10;99.90
12700;DHT22;6414;49.570;6.060;2023-02-26T02:43:03;-2.20;99.90
12700;DHT22;6414;49.570;6.060;2023-02-26T02:45:55;-2.20;99.90
12700;DHT22;6414;49.570;6.060;2023-02-26T02:48:40;-2.10;99.90
12700;DHT22;6414;49.570;6.060;2023-02-26T02:51:28;-2.10;99.90
12700;DHT22;6414;49.570;6.060;2023-02-26T02:54:16;-2.10;99.90
12700;DHT22;6414;49.570;6.060;2023-02-26T02:57:02;-2.20;99.90
12700;DHT22;6414;49.570;6.060;2023-02-26T02:59:53;-2.10;99.90
12700;DHT22;6414;49.570;6.060;2023-02-26T03:02:48;-2.00;99.90
12700;DHT22;6414;49.570;6.060;2023-02-26T03:05:31;-2.10;99.90
12700;DHT22;6414;49.570;6.060;2023-02-26T03:08:18;-2.00;99.90
12700;DHT22;6414;49.570;6.060;2023-02-26T03:11:02;-2.00;99.90
12700;DHT22;6414;49.570;6.060;2023-02-26T03:13:47;-1.90;99.90
12700;DHT22;6414;49.570;6.060;2023-02-26T03:16:55;-1.90;99.90
12700;DHT22;6414;49.570;6.060;2023-02-26T03:19:51;-1.80;99.90
12700;DHT22;6414;49.570;6.060;2023-02-26T03:22:51;-1.80;99.90
12700;DHT22;6414;49.570;6.060;2023-02-26T03:28:46;-1.80;99.90
12700;DHT22;6414;49.570;6.060;2023-02-26T03:31:32;-1.90;99.90
12700;DHT22;6414;49.570;6.060;2023-02-26T03:34:20;-2.10;99.90
12700;DHT22;6414;49.570;6.060;2023-02-26T03:37:14;-2.10;99.90
12700;DHT22;6414;49.570;6.060;2023-02-26T03:39:53;-2.10;99.90
12700;DHT22;6414;49.570;6.060;2023-02-26T03:42:49;-2.00;99.90
12700;DHT22;6414;49.570;6.060;2023-02-26T03:45:24;-2.00;99.90
12700;DHT22;6414;49.570;6.060;2023-02-26T03:48:09;-2.00;99.90
12700;DHT22;6414;49.570;6.060;2023-02-26T03:50:56;-1.90;99.90
12700;DHT22;6414;49.570;6.060;2023-02-26T03:53:41;-1.90;99.90
12700;DHT22;6414;49.570;6.060;2023-02-26T03:56:32;-1.90;99.90
12700;DHT22;6414;49.570;6.060;2023-02-26T03:59:15;-1.80;99.90
12700;DHT22;6414;49.570;6.060;2023-02-26T04:02:04;-1.80;99.90
12700;DHT22;6414;49.570;6.060;2023-02-26T04:05:11;-1.80;99.90
12700;DHT22;6414;49.570;6.060;2023-02-26T04:07:54;-1.80;99.90
12700;DHT22;6414;49.570;6.060;2023-02-26T04:10:56;-1.80;99.90
12700;DHT22;6414;49.570;6.060;2023-02-26T04:13:39;-1.80;99.90
12700;DHT22;6414;49.570;6.060;2023-02-26T04:16:25;-1.80;99.90
12700;DHT22;6414;49.570;6.060;2023-02-26T04:19:10;-1.80;99.90
12700;DHT22;6414;49.570;6.060;2023-02-26T04:21:55;-1.80;99.90
12700;DHT22;6414;49.570;6.060;2023-02-26T04:24:40;-1.90;99.90
12700;DHT22;6414;49.570;6.060;2023-02-26T04:27:25;-2.00;99.90
12700;DHT22;6414;49.570;6.060;2023-02-26T04:30:10;-2.00;99.90
12700;DHT22;6414;49.570;6.060;2023-02-26T04:32:55;-2.10;99.90
12700;DHT22;6414;49.570;6.060;2023-02-26T04:35:40;-2.10;99.90
12700;DHT22;6414;49.570;6.060;2023-02-26T04:38:26;-2.10;99.90
12700;DHT22;6414;49.570;6.060;2023-02-26T04:41:11;-2.00;99.90
12700;DHT22;6414;49.570;6.060;2023-02-26T04:43:56;-2.00;99.90
12700;DHT22;6414;49.570;6.060;2023-02-26T04:46:41;-2.10;99.90
12700;DHT22;6414;49.570;6.060;2023-02-26T04:49:27;-2.00;99.90
12700;DHT22;6414;49.570;6.060;2023-02-26T04:52:12;-2.00;99.90
12700;DHT22;6414;49.570;6.060;2023-02-26T04:54:57;-2.00;99.90
12700;DHT22;6414;49.570;6.060;2023-02-26T04:57:42;-1.90;99.90
12700;DHT22;6414;49.570;6.060;2023-02-26T05:00:27;-2.00;99.90
12700;DHT22;6414;49.570;6.060;2023-02-26T05:03:13;-2.00;99.90
12700;DHT22;6414;49.570;6.060;2023-02-26T05:05:58;-2.00;99.90
12700;DHT22;6414;49.570;6.060;2023-02-26T05:08:43;-2.10;99.90
12700;DHT22;6414;49.570;6.060;2023-02-26T05:11:28;-2.10;99.90
12700;DHT22;6414;49.570;6.060;2023-02-26T05:14:14;-2.10;99.90
12700;DHT22;6414;49.570;6.060;2023-02-26T05:16:59;-2.10;99.90
12700;DHT22;6414;49.570;6.060;2023-02-26T05:19:44;-2.20;99.90
12700;DHT22;6414;49.570;6.060;2023-02-26T05:22:30;-2.10;99.90
12700;DHT22;6414;49.570;6.060;2023-02-26T05:25:15;-2.20;99.90
12700;DHT22;6414;49.570;6.060;2023-02-26T05:28:00;-2.20;99.90
12700;DHT22;6414;49.570;6.060;2023-02-26T05:30:45;-2.20;99.90
12700;DHT22;6414;49.570;6.060;2023-02-26T05:33:31;-2.10;99.90
12700;DHT22;6414;49.570;6.060;2023-02-26T05:36:16;-2.30;99.90
12700;DHT22;6414;49.570;6.060;2023-02-26T05:39:01;-2.30;99.90
12700;DHT22;6414;49.570;6.060;2023-02-26T05:41:46;-2.20;99.90
12700;DHT22;6414;49.570;6.060;2023-02-26T05:44:31;-2.30;99.90
12700;DHT22;6414;49.570;6.060;2023-02-26T05:47:16;-2.30;99.90
12700;DHT22;6414;49.570;6.060;2023-02-26T05:50:02;-2.30;99.90
12700;DHT22;6414;49.570;6.060;2023-02-26T05:52:46;-2.30;99.90
12700;DHT22;6414;49.570;6.060;2023-02-26T05:55:32;-2.30;99.90
12700;DHT22;6414;49.570;6.060;2023-02-26T05:58:17;-2.30;99.90
12700;DHT22;6414;49.570;6.060;2023-02-26T06:01:03;-2.30;99.90
12700;DHT22;6414;49.570;6.060;2023-02-26T06:03:48;-2.20;99.90
12700;DHT22;6414;49.570;6.060;2023-02-26T06:06:33;-2.30;99.90
12700;DHT22;6414;49.570;6.060;2023-02-26T06:09:18;-2.30;99.90
12700;DHT22;6414;49.570;6.060;2023-02-26T06:12:03;-2.30;99.90
12700;DHT22;6414;49.570;6.060;2023-02-26T06:14:48;-2.30;99.90
12700;DHT22;6414;49.570;6.060;2023-02-26T06:17:34;-2.40;99.90
12700;DHT22;6414;49.570;6.060;2023-02-26T06:20:18;-2.40;99.90
12700;DHT22;6414;49.570;6.060;2023-02-26T06:23:04;-2.30;99.90
12700;DHT22;6414;49.570;6.060;2023-02-26T06:25:50;-2.50;99.90
12700;DHT22;6414;49.570;6.060;2023-02-26T06:28:35;-2.40;99.90
12700;DHT22;6414;49.570;6.060;2023-02-26T06:31:21;-2.40;99.90
12700;DHT22;6414;49.570;6.060;2023-02-26T06:34:06;-2.40;99.90
12700;DHT22;6414;49.570;6.060;2023-02-26T06:36:51;-2.40;99.90
12700;DHT22;6414;49.570;6.060;2023-02-26T06:39:36;-2.40;99.90
12700;DHT22;6414;49.570;6.060;2023-02-26T06:42:22;-2.50;99.90
12700;DHT22;6414;49.570;6.060;2023-02-26T06:45:08;-2.50;99.90
12700;DHT22;6414;49.570;6.060;2023-02-26T06:47:54;-2.50;99.90
12700;DHT22;6414;49.570;6.060;2023-02-26T06:50:40;-2.40;99.90
12700;DHT22;6414;49.570;6.060;2023-02-26T06:53:26;-2.50;99.90
12700;DHT22;6414;49.570;6.060;2023-02-26T06:56:12;-2.50;99.90
12700;DHT22;6414;49.570;6.060;2023-02-26T06:58:58;-2.50;99.90
12700;DHT22;6414;49.570;6.060;2023-02-26T07:01:43;-2.50;99.90
12700;DHT22;6414;49.570;6.060;2023-02-26T07:04:29;-2.40;99.90
12700;DHT22;6414;49.570;6.060;2023-02-26T07:07:15;-2.40;99.90
12700;DHT22;6414;49.570;6.060;2023-02-26T07:10:01;-2.30;99.90
12700;DHT22;6414;49.570;6.060;2023-02-26T07:12:47;-2.30;99.90
12700;DHT22;6414;49.570;6.060;2023-02-26T07:15:34;-2.30;99.90
12700;DHT22;6414;49.570;6.060;2023-02-26T07:18:20;-2.30;99.90
12700;DHT22;6414;49.570;6.060;2023-02-26T07:21:06;-2.20;99.90
12700;DHT22;6414;49.570;6.060;2023-02-26T07:23:52;-2.30;99.90
12700;DHT22;6414;49.570;6.060;2023-02-26T07:26:37;-2.20;99.90
12700;DHT22;6414;49.570;6.060;2023-02-26T07:29:23;-2.20;99.90
12700;DHT22;6414;49.570;6.060;2023-02-26T07:32:09;-2.20;99.90
12700;DHT22;6414;49.570;6.060;2023-02-26T07:34:55;-2.10;99.90
12700;DHT22;6414;49.570;6.060;2023-02-26T07:37:40;-2.10;99.90
12700;DHT22;6414;49.570;6.060;2023-02-26T07:40:27;-2.00;99.90
12700;DHT22;6414;49.570;6.060;2023-02-26T07:43:12;-2.00;99.90
12700;DHT22;6414;49.570;6.060;2023-02-26T07:45:58;-1.90;99.90
12700;DHT22;6414;49.570;6.060;2023-02-26T07:48:43;-1.90;99.90
12700;DHT22;6414;49.570;6.060;2023-02-26T07:51:29;-1.80;88.80
12700;DHT22;6414;49.570;6.060;2023-02-26T07:54:15;-1.60;71.70
12700;DHT22;6414;49.570;6.060;2023-02-26T07:57:01;-1.60;65.00
12700;DHT22;6414;49.570;6.060;2023-02-26T07:59:46;-1.60;54.60
12700;DHT22;6414;49.570;6.060;2023-02-26T08:02:31;-1.60;71.50
12700;DHT22;6414;49.570;6.060;2023-02-26T08:05:18;-1.50;24.00
12700;DHT22;6414;49.570;6.060;2023-02-26T08:08:04;-1.50;19.80
12700;DHT22;6414;49.570;6.060;2023-02-26T08:10:49;-1.50;26.30
12700;DHT22;6414;49.570;6.060;2023-02-26T08:13:34;-1.40;8.30
12700;DHT22;6414;49.570;6.060;2023-02-26T08:16:20;-1.50;16.10
12700;DHT22;6414;49.570;6.060;2023-02-26T08:19:06;-1.30;6.80
12700;DHT22;6414;49.570;6.060;2023-02-26T08:21:52;-1.10;1.00
12700;DHT22;6414;49.570;6.060;2023-02-26T08:24:38;-1.10;1.00
12700;DHT22;6414;49.570;6.060;2023-02-26T08:27:23;-1.00;1.00
12700;DHT22;6414;49.570;6.060;2023-02-26T08:30:09;-1.00;1.00
12700;DHT22;6414;49.570;6.060;2023-02-26T08:32:54;-1.10;1.00
12700;DHT22;6414;49.570;6.060;2023-02-26T08:35:39;-1.00;1.00
12700;DHT22;6414;49.570;6.060;2023-02-26T08:38:25;-0.90;1.00
12700;DHT22;6414;49.570;6.060;2023-02-26T08:41:10;-0.90;1.00
12700;DHT22;6414;49.570;6.060;2023-02-26T08:43:55;-0.70;1.00
12700;DHT22;6414;49.570;6.060;2023-02-26T08:46:40;-0.60;1.00
12700;DHT22;6414;49.570;6.060;2023-02-26T08:49:25;-0.50;99.90
12700;DHT22;6414;49.570;6.060;2023-02-26T08:52:11;-0.60;11.20
12700;DHT22;6414;49.570;6.060;2023-02-26T08:54:57;-0.40;13.60
12700;DHT22;6414;49.570;6.060;2023-02-26T08:57:42;-0.30;1.00
12700;DHT22;6414;49.570;6.060;2023-02-26T09:00:28;-0.60;99.90
12700;DHT22;6414;49.570;6.060;2023-02-26T09:03:14;-0.30;1.00
12700;DHT22;6414;49.570;6.060;2023-02-26T09:05:59;-0.30;99.90
12700;DHT22;6414;49.570;6.060;2023-02-26T09:08:45;-0.10;38.90
12700;DHT22;6414;49.570;6.060;2023-02-26T09:11:30;-0.20;99.90
12700;DHT22;6414;49.570;6.060;2023-02-26T09:14:15;0.00;99.90
12700;DHT22;6414;49.570;6.060;2023-02-26T09:17:00;0.50;44.30
12700;DHT22;6414;49.570;6.060;2023-02-26T09:19:46;0.70;99.90
12700;DHT22;6414;49.570;6.060;2023-02-26T09:22:31;0.50;1.00
12700;DHT22;6414;49.570;6.060;2023-02-26T09:25:16;0.20;1.00
12700;DHT22;6414;49.570;6.060;2023-02-26T09:28:02;0.10;1.00
12700;DHT22;6414;49.570;6.060;2023-02-26T09:30:49;0.20;99.90
12700;DHT22;6414;49.570;6.060;2023-02-26T09:33:32;1.20;99.90
12700;DHT22;6414;49.570;6.060;2023-02-26T09:36:17;0.60;99.90
12700;DHT22;6414;49.570;6.060;2023-02-26T09:39:02;1.20;1.00
12700;DHT22;6414;49.570;6.060;2023-02-26T09:41:49;0.30;1.00
12700;DHT22;6414;49.570;6.060;2023-02-26T09:44:36;0.10;1.00
12700;DHT22;6414;49.570;6.060;2023-02-26T09:47:32;2.40;99.90
12700;DHT22;6414;49.570;6.060;2023-02-26T09:50:22;1.90;1.00
12700;DHT22;6414;49.570;6.060;2023-02-26T09:53:16;2.40;1.00
12700;DHT22;6414;49.570;6.060;2023-02-26T09:56:18;1.50;1.00
12700;DHT22;6414;49.570;6.060;2023-02-26T09:59:03;1.50;1.00
12700;DHT22;6414;49.570;6.060;2023-02-26T10:02:04;1.10;99.90
12700;DHT22;6414;49.570;6.060;2023-02-26T10:04:50;1.00;99.90
12700;DHT22;6414;49.570;6.060;2023-02-26T10:07:49;1.10;99.90
12700;DHT22;6414;49.570;6.060;2023-02-26T10:13:50;0.70;99.90
12700;DHT22;6414;49.570;6.060;2023-02-26T10:16:35;0.70;99.90
12700;DHT22;6414;49.570;6.060;2023-02-26T10:19:22;0.50;95.80
12700;DHT22;6414;49.570;6.060;2023-02-26T10:22:18;0.20;18.10
12700;DHT22;6414;49.570;6.060;2023-02-26T10:25:04;0.50;1.00
12700;DHT22;6414;49.570;6.060;2023-02-26T10:27:54;0.30;1.00
12700;DHT22;6414;49.570;6.060;2023-02-26T10:30:43;0.30;1.00
12700;DHT22;6414;49.570;6.060;2023-02-26T10:33:29;0.50;1.00
12700;DHT22;6414;49.570;6.060;2023-02-26T10:36:16;0.70;1.00
12700;DHT22;6414;49.570;6.060;2023-02-26T10:39:02;0.60;1.00
12700;DHT22;6414;49.570;6.060;2023-02-26T10:41:46;0.90;1.00
12700;DHT22;6414;49.570;6.060;2023-02-26T10:44:49;0.90;99.90
12700;DHT22;6414;49.570;6.060;2023-02-26T10:50:44;1.00;1.00
12700;DHT22;6414;49.570;6.060;2023-02-26T10:53:26;1.00;1.00
12700;DHT22;6414;49.570;6.060;2023-02-26T10:56:14;0.90;1.00
12700;DHT22;6414;49.570;6.060;2023-02-26T10:58:57;1.40;99.90
12700;DHT22;6414;49.570;6.060;2023-02-26T11:01:43;1.40;99.90
12700;DHT22;6414;49.570;6.060;2023-02-26T11:04:28;1.00;99.90
12700;DHT22;6414;49.570;6.060;2023-02-26T11:07:13;0.90;99.90
12700;DHT22;6414;49.570;6.060;2023-02-26T11:09:58;0.70;99.90
12700;DHT22;6414;49.570;6.060;2023-02-26T11:12:44;0.80;99.90
12700;DHT22;6414;49.570;6.060;2023-02-26T11:15:29;1.00;99.90
12700;DHT22;6414;49.570;6.060;2023-02-26T11:18:15;1.00;99.90
12700;DHT22;6414;49.570;6.060;2023-02-26T11:20:59;1.20;99.90
12700;DHT22;6414;49.570;6.060;2023-02-26T11:23:45;1.20;99.90
12700;DHT22;6414;49.570;6.060;2023-02-26T11:26:36;1.20;99.90
12700;DHT22;6414;49.570;6.060;2023-02-26T11:29:21;1.30;99.90
12700;DHT22;6414;49.570;6.060;2023-02-26T11:32:09;1.30;99.90
12700;DHT22;6414;49.570;6.060;2023-02-26T11:34:52;1.40;99.90
12700;DHT22;6414;49.570;6.060;2023-02-26T11:37:38;1.40;99.90
12700;DHT22;6414;49.570;6.060;2023-02-26T11:40:45;1.30;99.90
12700;DHT22;6414;49.570;6.060;2023-02-26T11:43:11;1.40;99.90
12700;DHT22;6414;49.570;6.060;2023-02-26T11:45:54;1.00;99.90
12700;DHT22;6414;49.570;6.060;2023-02-26T11:48:47;0.90;99.90
12700;DHT22;6414;49.570;6.060;2023-02-26T11:51:32;0.50;99.90
12700;DHT22;6414;49.570;6.060;2023-02-26T11:54:26;0.70;99.90
12700;DHT22;6414;49.570;6.060;2023-02-26T11:57:19;0.90;99.90
12700;DHT22;6414;49.570;6.060;2023-02-26T12:00:11;1.50;99.90
12700;DHT22;6414;49.570;6.060;2023-02-26T12:02:48;1.80;99.90
12700;DHT22;6414;49.570;6.060;2023-02-26T12:05:33;1.90;85.20
12700;DHT22;6414;49.570;6.060;2023-02-26T12:08:32;1.80;47.10
12700;DHT22;6414;49.570;6.060;2023-02-26T12:20:46;2.00;99.90
12700;DHT22;6414;49.570;6.060;2023-02-26T12:27:02;1.70;99.90
12700;DHT22;6414;49.570;6.060;2023-02-26T12:30:01;1.70;99.90
12700;DHT22;6414;49.570;6.060;2023-02-26T12:36:18;1.60;93.90
12700;DHT22;6414;49.570;6.060;2023-02-26T12:41:53;1.60;99.90
12700;DHT22;6414;49.570;6.060;2023-02-26T13:00:02;1.90;70.10
12700;DHT22;6414;49.570;6.060;2023-02-26T13:06:13;1.80;99.90
12700;DHT22;6414;49.570;6.060;2023-02-26T13:09:24;1.70;99.90
12700;DHT22;6414;49.570;6.060;2023-02-26T13:12:16;1.60;99.90
12700;DHT22;6414;49.570;6.060;2023-02-26T13:20:42;1.50;99.90
12700;DHT22;6414;49.570;6.060;2023-02-26T13:23:35;1.70;99.90
12700;DHT22;6414;49.570;6.060;2023-02-26T13:26:17;1.80;99.90
12700;DHT22;6414;49.570;6.060;2023-02-26T13:29:05;2.00;74.60
12700;DHT22;6414;49.570;6.060;2023-02-26T13:31:59;2.00;54.10
12700;DHT22;6414;49.570;6.060;2023-02-26T13:35:00;2.00;21.70
12700;DHT22;6414;49.570;6.060;2023-02-26T13:37:53;1.70;46.10
12700;DHT22;6414;49.570;6.060;2023-02-26T13:40:41;1.60;25.80
12700;DHT22;6414;49.570;6.060;2023-02-26T13:46:55;1.60;57.10
12700;DHT22;6414;49.570;6.060;2023-02-26T13:49:51;1.70;91.00
12700;DHT22;6414;49.570;6.060;2023-02-26T13:52:34;2.00;99.90
12700;DHT22;6414;49.570;6.060;2023-02-26T13:55:35;2.00;72.70
12700;DHT22;6414;49.570;6.060;2023-02-26T14:01:15;1.40;18.70
12700;DHT22;6414;49.570;6.060;2023-02-26T14:09:55;1.80;6.60
12700;DHT22;6414;49.570;6.060;2023-02-26T14:12:36;2.00;1.00
12700;DHT22;6414;49.570;6.060;2023-02-26T14:15:28;2.00;1.00
12700;DHT22;6414;49.570;6.060;2023-02-26T14:18:40;2.10;1.00
12700;DHT22;6414;49.570;6.060;2023-02-26T14:24:21;1.90;1.00
12700;DHT22;6414;49.570;6.060;2023-02-26T14:27:22;2.10;1.00
12700;DHT22;6414;49.570;6.060;2023-02-26T14:30:03;2.30;1.00
12700;DHT22;6414;49.570;6.060;2023-02-26T14:32:48;2.10;70.10
12700;DHT22;6414;49.570;6.060;2023-02-26T14:38:22;1.90;73.30
12700;DHT22;6414;49.570;6.060;2023-02-26T14:41:12;2.10;37.40
12700;DHT22;6414;49.570;6.060;2023-02-26T14:44:03;2.00;1.00
12700;DHT22;6414;49.570;6.060;2023-02-26T14:46:48;2.00;1.00
12700;DHT22;6414;49.570;6.060;2023-02-26T14:49:36;1.90;1.00
12700;DHT22;6414;49.570;6.060;2023-02-26T14:52:30;1.70;1.00
12700;DHT22;6414;49.570;6.060;2023-02-26T14:55:47;1.80;1.00
12700;DHT22;6414;49.570;6.060;2023-02-26T15:04:21;1.90;1.00
12700;DHT22;6414;49.570;6.060;2023-02-26T15:07:28;1.80;1.00
12700;DHT22;6414;49.570;6.060;2023-02-26T15:10:15;1.80;1.00
12700;DHT22;6414;49.570;6.060;2023-02-26T15:13:14;1.80;1.00
12700;DHT22;6414;49.570;6.060;2023-02-26T15:22:08;1.50;99.90
12700;DHT22;6414;49.570;6.060;2023-02-26T15:24:50;1.50;99.90
12700;DHT22;6414;49.570;6.060;2023-02-26T15:27:36;1.30;99.90
12700;DHT22;6414;49.570;6.060;2023-02-26T15:30:22;1.30;99.90
12700;DHT22;6414;49.570;6.060;2023-02-26T15:33:11;1.30;99.90
12700;DHT22;6414;49.570;6.060;2023-02-26T15:35:53;1.20;99.90
12700;DHT22;6414;49.570;6.060;2023-02-26T15:38:42;1.20;99.90
12700;DHT22;6414;49.570;6.060;2023-02-26T15:41:29;1.20;99.90
12700;DHT22;6414;49.570;6.060;2023-02-26T15:44:15;1.20;99.90
12700;DHT22;6414;49.570;6.060;2023-02-26T15:47:00;1.30;90.80
12700;DHT22;6414;49.570;6.060;2023-02-26T15:49:47;1.40;92.20
12700;DHT22;6414;49.570;6.060;2023-02-26T15:52:32;1.40;53.20
12700;DHT22;6414;49.570;6.060;2023-02-26T15:55:17;1.60;65.50
12700;DHT22;6414;49.570;6.060;2023-02-26T15:58:04;1.60;76.80
12700;DHT22;6414;49.570;6.060;2023-02-26T16:00:51;1.50;22.70
12700;DHT22;6414;49.570;6.060;2023-02-26T16:03:36;1.50;22.80
12700;DHT22;6414;49.570;6.060;2023-02-26T16:06:31;1.40;10.80
12700;DHT22;6414;49.570;6.060;2023-02-26T16:09:24;1.50;46.70
12700;DHT22;6414;49.570;6.060;2023-02-26T16:12:30;1.60;21.50
12700;DHT22;6414;49.570;6.060;2023-02-26T16:14:51;1.60;20.80
12700;DHT22;6414;49.570;6.060;2023-02-26T16:17:38;1.50;13.20
12700;DHT22;6414;49.570;6.060;2023-02-26T16:20:21;1.50;1.00
12700;DHT22;6414;49.570;6.060;2023-02-26T16:23:08;1.50;1.00
12700;DHT22;6414;49.570;6.060;2023-02-26T16:25:52;1.30;1.00
12700;DHT22;6414;49.570;6.060;2023-02-26T16:28:38;1.40;1.00
12700;DHT22;6414;49.570;6.060;2023-02-26T16:31:23;1.20;1.00
12700;DHT22;6414;49.570;6.060;2023-02-26T16:34:22;1.20;1.00
12700;DHT22;6414;49.570;6.060;2023-02-26T16:36:52;1.40;1.00
12700;DHT22;6414;49.570;6.060;2023-02-26T16:39:37;1.40;1.00
12700;DHT22;6414;49.570;6.060;2023-02-26T16:42:33;1.30;1.00
12700;DHT22;6414;49.570;6.060;2023-02-26T16:48:26;1.10;1.00
12700;DHT22;6414;49.570;6.060;2023-02-26T16:51:11;1.00;1.00
12700;DHT22;6414;49.570;6.060;2023-02-26T16:53:59;1.00;1.00
12700;DHT22;6414;49.570;6.060;2023-02-26T16:56:44;1.00;1.00
12700;DHT22;6414;49.570;6.060;2023-02-26T16:59:30;0.80;1.00
12700;DHT22;6414;49.570;6.060;2023-02-26T17:02:20;0.80;1.00
12700;DHT22;6414;49.570;6.060;2023-02-26T17:05:14;0.80;1.00
12700;DHT22;6414;49.570;6.060;2023-02-26T17:08:00;0.70;1.00
12700;DHT22;6414;49.570;6.060;2023-02-26T17:10:45;0.70;1.00
12700;DHT22;6414;49.570;6.060;2023-02-26T17:13:30;0.70;1.00
12700;DHT22;6414;49.570;6.060;2023-02-26T17:16:14;0.60;1.00
12700;DHT22;6414;49.570;6.060;2023-02-26T17:18:59;0.60;5.30
12700;DHT22;6414;49.570;6.060;2023-02-26T17:24:33;0.40;36.90
12700;DHT22;6414;49.570;6.060;2023-02-26T17:27:30;0.40;52.50
12700;DHT22;6414;49.570;6.060;2023-02-26T17:30:14;0.40;81.20
12700;DHT22;6414;49.570;6.060;2023-02-26T17:32:59;0.40;79.90
12700;DHT22;6414;49.570;6.060;2023-02-26T17:35:44;0.30;89.10
12700;DHT22;6414;49.570;6.060;2023-02-26T17:38:29;0.30;99.50
12700;DHT22;6414;49.570;6.060;2023-02-26T17:41:18;0.30;99.90
12700;DHT22;6414;49.570;6.060;2023-02-26T17:44:00;0.30;99.90
12700;DHT22;6414;49.570;6.060;2023-02-26T17:46:45;0.20;99.90
12700;DHT22;6414;49.570;6.060;2023-02-26T17:49:31;0.20;99.90
12700;DHT22;6414;49.570;6.060;2023-02-26T17:52:16;0.20;99.90
12700;DHT22;6414;49.570;6.060;2023-02-26T17:55:01;0.20;99.90
12700;DHT22;6414;49.570;6.060;2023-02-26T17:57:45;0.20;99.90
12700;DHT22;6414;49.570;6.060;2023-02-26T18:00:32;0.20;99.90
12700;DHT22;6414;49.570;6.060;2023-02-26T18:03:16;0.20;99.90
12700;DHT22;6414;49.570;6.060;2023-02-26T18:06:02;0.20;99.90
12700;DHT22;6414;49.570;6.060;2023-02-26T18:08:48;0.20;99.90
12700;DHT22;6414;49.570;6.060;2023-02-26T18:11:33;0.20;99.90
12700;DHT22;6414;49.570;6.060;2023-02-26T18:14:18;0.20;99.90
12700;DHT22;6414;49.570;6.060;2023-02-26T18:17:03;0.20;99.90
12700;DHT22;6414;49.570;6.060;2023-02-26T18:19:49;0.10;99.90
12700;DHT22;6414;49.570;6.060;2023-02-26T18:22:34;0.10;99.90
12700;DHT22;6414;49.570;6.060;2023-02-26T18:25:19;0.10;99.90
12700;DHT22;6414;49.570;6.060;2023-02-26T18:28:05;0.20;99.90
12700;DHT22;6414;49.570;6.060;2023-02-26T18:30:51;0.30;99.90
12700;DHT22;6414;49.570;6.060;2023-02-26T18:33:36;0.30;99.90
12700;DHT22;6414;49.570;6.060;2023-02-26T18:36:27;0.30;99.90
12700;DHT22;6414;49.570;6.060;2023-02-26T18:39:11;0.40;99.90
12700;DHT22;6414;49.570;6.060;2023-02-26T18:41:54;0.30;99.90
12700;DHT22;6414;49.570;6.060;2023-02-26T18:44:39;0.40;99.90
12700;DHT22;6414;49.570;6.060;2023-02-26T18:47:24;0.30;99.90
12700;DHT22;6414;49.570;6.060;2023-02-26T18:50:11;0.20;99.90
12700;DHT22;6414;49.570;6.060;2023-02-26T18:52:55;0.20;99.90
12700;DHT22;6414;49.570;6.060;2023-02-26T18:55:40;0.20;99.90
12700;DHT22;6414;49.570;6.060;2023-02-26T18:58:25;0.10;99.90
12700;DHT22;6414;49.570;6.060;2023-02-26T19:01:10;0.10;99.90
12700;DHT22;6414;49.570;6.060;2023-02-26T19:03:55;0.00;99.90
12700;DHT22;6414;49.570;6.060;2023-02-26T19:06:41;-0.10;99.90
12700;DHT22;6414;49.570;6.060;2023-02-26T19:09:26;-0.10;99.90
12700;DHT22;6414;49.570;6.060;2023-02-26T19:12:11;-0.20;99.90
12700;DHT22;6414;49.570;6.060;2023-02-26T19:14:59;-0.20;99.90
12700;DHT22;6414;49.570;6.060;2023-02-26T19:17:44;-0.30;99.90
12700;DHT22;6414;49.570;6.060;2023-02-26T19:20:30;-0.20;99.90
12700;DHT22;6414;49.570;6.060;2023-02-26T19:23:15;-0.30;99.90
12700;DHT22;6414;49.570;6.060;2023-02-26T19:26:01;-0.20;99.90
12700;DHT22;6414;49.570;6.060;2023-02-26T19:28:46;-0.20;99.90
12700;DHT22;6414;49.570;6.060;2023-02-26T19:31:31;-0.20;99.90
12700;DHT22;6414;49.570;6.060;2023-02-26T19:34:17;-0.30;99.90
12700;DHT22;6414;49.570;6.060;2023-02-26T19:37:02;-0.20;99.90
12700;DHT22;6414;49.570;6.060;2023-02-26T19:39:48;-0.10;99.90
12700;DHT22;6414;49.570;6.060;2023-02-26T19:42:33;-0.20;99.90
12700;DHT22;6414;49.570;6.060;2023-02-26T19:45:18;-0.10;99.90
12700;DHT22;6414;49.570;6.060;2023-02-26T19:48:03;-0.10;99.90
12700;DHT22;6414;49.570;6.060;2023-02-26T19:50:49;0.00;99.90
12700;DHT22;6414;49.570;6.060;2023-02-26T19:53:34;0.10;99.90
12700;DHT22;6414;49.570;6.060;2023-02-26T19:56:19;0.00;99.90